sensor_id;sensor_type;location;lat;lon;timestamp;P1;durP1;ratioP1;P2;durP2;ratioP2
37971;SDS011;23794;48.234;8.344;2023-03-01T00:00:04;18.88;;;11.77;;
37971;SDS011;23794;48.234;8.344;2023-03-01T00:02:36;21.05;;;12.15;;
37971;SDS011;23794;48.234;8.344;2023-03-01T00:05:03;19.33;;;12.32;;
37971;SDS011;23794;48.234;8.344;2023-03-01T00:07:30;17.60;;;11.18;;
37971;SDS011;23794;48.234;8.344;2023-03-01T00:09:57;21.05;;;13.30;;
37971;SDS011;23794;48.234;8.344;2023-03-01T00:12:23;20.55;;;12.70;;
37971;SDS011;23794;48.234;8.344;2023-03-01T00:14:50;19.50;;;12.10;;
37971;SDS011;23794;48.234;8.344;2023-03-01T00:17:16;17.90;;;11.07;;
37971;SDS011;23794;48.234;8.344;2023-03-01T00:19:43;21.98;;;12.82;;
37971;SDS011;23794;48.234;8.344;2023-03-01T00:22:09;21.25;;;12.73;;
37971;SDS011;23794;48.234;8.344;2023-03-01T00:24:36;22.45;;;14.13;;
37971;SDS011;23794;48.234;8.344;2023-03-01T00:27:02;18.60;;;12.20;;
37971;SDS011;23794;48.234;8.344;2023-03-01T00:29:29;21.23;;;12.95;;
37971;SDS011;23794;48.234;8.344;2023-03-01T00:31:56;29.00;;;12.93;;
37971;SDS011;23794;48.234;8.344;2023-03-01T00:34:22;16.52;;;11.35;;
37971;SDS011;23794;48.234;8.344;2023-03-01T00:36:49;23.10;;;13.23;;
37971;SDS011;23794;48.234;8.344;2023-03-01T00:39:16;19.52;;;11.95;;
37971;SDS011;23794;48.234;8.344;2023-03-01T00:41:42;20.27;;;13.27;;
37971;SDS011;23794;48.234;8.344;2023-03-01T00:44:09;18.08;;;11.45;;
37971;SDS011;23794;48.234;8.344;2023-03-01T00:46:36;19.52;;;13.45;;
37971;SDS011;23794;48.234;8.344;2023-03-01T00:49:03;19.83;;;11.85;;
37971;SDS011;23794;48.234;8.344;2023-03-01T00:51:31;25.60;;;14.63;;
37971;SDS011;23794;48.234;8.344;2023-03-01T00:53:58;19.92;;;12.93;;
37971;SDS011;23794;48.234;8.344;2023-03-01T00:56:28;20.02;;;12.60;;
37971;SDS011;23794;48.234;8.344;2023-03-01T00:58:56;22.25;;;13.60;;
37971;SDS011;23794;48.234;8.344;2023-03-01T01:01:26;24.38;;;14.40;;
37971;SDS011;23794;48.234;8.344;2023-03-01T01:04:01;18.77;;;11.32;;
37971;SDS011;23794;48.234;8.344;2023-03-01T01:06:31;25.40;;;14.35;;
37971;SDS011;23794;48.234;8.344;2023-03-01T01:09:03;19.23;;;12.75;;
37971;SDS011;23794;48.234;8.344;2023-03-01T01:11:32;20.10;;;12.52;;
37971;SDS011;23794;48.234;8.344;2023-03-01T01:13:59;18.27;;;12.05;;
37971;SDS011;23794;48.234;8.344;2023-03-01T01:16:28;22.50;;;13.68;;
37971;SDS011;23794;48.234;8.344;2023-03-01T01:18:56;19.98;;;12.68;;
37971;SDS011;23794;48.234;8.344;2023-03-01T01:21:23;19.05;;;12.20;;
37971;SDS011;23794;48.234;8.344;2023-03-01T01:23:51;21.13;;;12.98;;
37971;SDS011;23794;48.234;8.344;2023-03-01T01:26:19;19.85;;;12.63;;
37971;SDS011;23794;48.234;8.344;2023-03-01T01:28:48;20.30;;;12.55;;
37971;SDS011;23794;48.234;8.344;2023-03-01T01:31:16;22.23;;;13.25;;
37971;SDS011;23794;48.234;8.344;2023-03-01T01:33:43;21.17;;;13.45;;
37971;SDS011;23794;48.234;8.344;2023-03-01T01:36:10;23.27;;;14.80;;
37971;SDS011;23794;48.234;8.344;2023-03-01T01:38:38;20.83;;;13.10;;
37971;SDS011;23794;48.234;8.344;2023-03-01T01:41:05;22.05;;;13.73;;
37971;SDS011;23794;48.234;8.344;2023-03-01T01:43:37;21.02;;;13.25;;
37971;SDS011;23794;48.234;8.344;2023-03-01T01:46:25;22.63;;;12.38;;
37971;SDS011;23794;48.234;8.344;2023-03-01T01:48:58;20.45;;;13.00;;
37971;SDS011;23794;48.234;8.344;2023-03-01T01:51:29;21.08;;;13.35;;
37971;SDS011;23794;48.234;8.344;2023-03-01T01:54:15;20.15;;;12.32;;
37971;SDS011;23794;48.234;8.344;2023-03-01T01:56:48;19.38;;;12.70;;
37971;SDS011;23794;48.234;8.344;2023-03-01T02:01:53;19.65;;;12.13;;
37971;SDS011;23794;48.234;8.344;2023-03-01T02:04:20;23.25;;;13.07;;
37971;SDS011;23794;48.234;8.344;2023-03-01T02:06:49;20.95;;;12.57;;
37971;SDS011;23794;48.234;8.344;2023-03-01T02:09:22;24.73;;;14.73;;
37971;SDS011;23794;48.234;8.344;2023-03-01T02:11:50;22.23;;;13.10;;
37971;SDS011;23794;48.234;8.344;2023-03-01T02:14:18;22.60;;;13.35;;
37971;SDS011;23794;48.234;8.344;2023-03-01T02:16:44;21.15;;;13.88;;
37971;SDS011;23794;48.234;8.344;2023-03-01T02:19:39;21.58;;;12.73;;
37971;SDS011;23794;48.234;8.344;2023-03-01T02:22:25;21.58;;;13.82;;
37971;SDS011;23794;48.234;8.344;2023-03-01T02:27:28;22.80;;;13.45;;
37971;SDS011;23794;48.234;8.344;2023-03-01T02:30:07;23.67;;;12.73;;
37971;SDS011;23794;48.234;8.344;2023-03-01T02:32:34;24.48;;;14.45;;
37971;SDS011;23794;48.234;8.344;2023-03-01T02:35:01;17.08;;;11.52;;
37971;SDS011;23794;48.234;8.344;2023-03-01T02:37:28;20.25;;;12.10;;
37971;SDS011;23794;48.234;8.344;2023-03-01T02:39:57;21.60;;;13.75;;
37971;SDS011;23794;48.234;8.344;2023-03-01T02:42:33;22.20;;;13.65;;
37971;SDS011;23794;48.234;8.344;2023-03-01T02:45:07;19.45;;;12.48;;
37971;SDS011;23794;48.234;8.344;2023-03-01T02:47:33;22.83;;;13.48;;
37971;SDS011;23794;48.234;8.344;2023-03-01T02:50:00;25.02;;;13.30;;
37971;SDS011;23794;48.234;8.344;2023-03-01T02:52:29;21.88;;;14.75;;
37971;SDS011;23794;48.234;8.344;2023-03-01T02:57:38;21.50;;;12.90;;
37971;SDS011;23794;48.234;8.344;2023-03-01T03:00:12;21.20;;;12.77;;
37971;SDS011;23794;48.234;8.344;2023-03-01T03:02:49;20.85;;;13.18;;
37971;SDS011;23794;48.234;8.344;2023-03-01T03:05:19;19.08;;;12.90;;
37971;SDS011;23794;48.234;8.344;2023-03-01T03:07:51;24.60;;;14.30;;
37971;SDS011;23794;48.234;8.344;2023-03-01T03:10:20;21.38;;;13.13;;
37971;SDS011;23794;48.234;8.344;2023-03-01T03:12:52;21.73;;;13.73;;
37971;SDS011;23794;48.234;8.344;2023-03-01T03:15:20;25.02;;;14.32;;
37971;SDS011;23794;48.234;8.344;2023-03-01T03:17:49;20.15;;;12.60;;
37971;SDS011;23794;48.234;8.344;2023-03-01T03:20:17;20.02;;;12.77;;
37971;SDS011;23794;48.234;8.344;2023-03-01T03:22:46;24.42;;;14.27;;
37971;SDS011;23794;48.234;8.344;2023-03-01T03:25:15;21.33;;;12.60;;
37971;SDS011;23794;48.234;8.344;2023-03-01T03:27:43;19.00;;;12.75;;
37971;SDS011;23794;48.234;8.344;2023-03-01T03:30:12;24.38;;;14.68;;
37971;SDS011;23794;48.234;8.344;2023-03-01T03:32:41;21.45;;;13.63;;
37971;SDS011;23794;48.234;8.344;2023-03-01T03:35:19;21.95;;;13.27;;
37971;SDS011;23794;48.234;8.344;2023-03-01T03:37:50;21.55;;;13.40;;
37971;SDS011;23794;48.234;8.344;2023-03-01T03:43:06;21.38;;;13.05;;
37971;SDS011;23794;48.234;8.344;2023-03-01T03:45:35;21.15;;;13.13;;
37971;SDS011;23794;48.234;8.344;2023-03-01T03:48:03;23.10;;;14.18;;
37971;SDS011;23794;48.234;8.344;2023-03-01T03:50:31;23.08;;;13.65;;
37971;SDS011;23794;48.234;8.344;2023-03-01T03:53:02;21.63;;;14.73;;
37971;SDS011;23794;48.234;8.344;2023-03-01T03:55:31;19.65;;;12.50;;
37971;SDS011;23794;48.234;8.344;2023-03-01T03:58:02;19.88;;;13.55;;
37971;SDS011;23794;48.234;8.344;2023-03-01T04:00:34;24.35;;;14.40;;
37971;SDS011;23794;48.234;8.344;2023-03-01T04:03:04;23.00;;;15.55;;
37971;SDS011;23794;48.234;8.344;2023-03-01T04:05:32;22.42;;;13.23;;
37971;SDS011;23794;48.234;8.344;2023-03-01T04:07:58;19.33;;;13.60;;
37971;SDS011;23794;48.234;8.344;2023-03-01T04:10:29;21.08;;;12.95;;
37971;SDS011;23794;48.234;8.344;2023-03-01T04:12:57;22.10;;;13.73;;
37971;SDS011;23794;48.234;8.344;2023-03-01T04:15:24;23.33;;;13.93;;
37971;SDS011;23794;48.234;8.344;2023-03-01T04:17:53;23.13;;;15.35;;
37971;SDS011;23794;48.234;8.344;2023-03-01T04:20:22;24.08;;;15.65;;
37971;SDS011;23794;48.234;8.344;2023-03-01T04:23:26;25.48;;;14.32;;
37971;SDS011;23794;48.234;8.344;2023-03-01T04:28:15;27.65;;;15.40;;
37971;SDS011;23794;48.234;8.344;2023-03-01T04:30:42;23.90;;;13.38;;
37971;SDS011;23794;48.234;8.344;2023-03-01T04:33:09;31.17;;;15.50;;
37971;SDS011;23794;48.234;8.344;2023-03-01T04:35:36;22.92;;;13.93;;
37971;SDS011;23794;48.234;8.344;2023-03-01T04:38:04;25.02;;;14.40;;
37971;SDS011;23794;48.234;8.344;2023-03-01T04:40:31;20.52;;;14.30;;
37971;SDS011;23794;48.234;8.344;2023-03-01T04:42:58;23.15;;;16.27;;
37971;SDS011;23794;48.234;8.344;2023-03-01T04:45:25;22.42;;;14.13;;
37971;SDS011;23794;48.234;8.344;2023-03-01T04:47:52;21.38;;;14.00;;
37971;SDS011;23794;48.234;8.344;2023-03-01T04:50:18;24.60;;;15.30;;
37971;SDS011;23794;48.234;8.344;2023-03-01T04:52:50;25.20;;;16.58;;
37971;SDS011;23794;48.234;8.344;2023-03-01T04:55:17;24.73;;;15.52;;
37971;SDS011;23794;48.234;8.344;2023-03-01T04:57:44;23.73;;;15.70;;
37971;SDS011;23794;48.234;8.344;2023-03-01T05:00:11;23.75;;;14.65;;
37971;SDS011;23794;48.234;8.344;2023-03-01T05:02:59;21.92;;;13.80;;
37971;SDS011;23794;48.234;8.344;2023-03-01T05:05:28;27.63;;;15.90;;
37971;SDS011;23794;48.234;8.344;2023-03-01T05:07:58;25.90;;;14.73;;
37971;SDS011;23794;48.234;8.344;2023-03-01T05:10:27;25.80;;;14.20;;
37971;SDS011;23794;48.234;8.344;2023-03-01T05:12:56;25.80;;;15.63;;
37971;SDS011;23794;48.234;8.344;2023-03-01T05:15:26;23.55;;;15.55;;
37971;SDS011;23794;48.234;8.344;2023-03-01T05:17:55;25.08;;;15.88;;
37971;SDS011;23794;48.234;8.344;2023-03-01T05:20:25;23.42;;;14.63;;
37971;SDS011;23794;48.234;8.344;2023-03-01T05:22:57;24.73;;;14.30;;
37971;SDS011;23794;48.234;8.344;2023-03-01T05:25:25;27.02;;;15.60;;
37971;SDS011;23794;48.234;8.344;2023-03-01T05:27:52;23.13;;;14.35;;
37971;SDS011;23794;48.234;8.344;2023-03-01T05:30:18;27.30;;;16.10;;
37971;SDS011;23794;48.234;8.344;2023-03-01T05:32:46;23.95;;;15.88;;
37971;SDS011;23794;48.234;8.344;2023-03-01T05:35:14;26.23;;;15.32;;
37971;SDS011;23794;48.234;8.344;2023-03-01T05:37:43;23.60;;;15.20;;
37971;SDS011;23794;48.234;8.344;2023-03-01T05:40:12;23.42;;;14.55;;
37971;SDS011;23794;48.234;8.344;2023-03-01T05:42:47;22.90;;;15.25;;
37971;SDS011;23794;48.234;8.344;2023-03-01T05:45:16;24.77;;;16.27;;
37971;SDS011;23794;48.234;8.344;2023-03-01T05:47:44;26.52;;;16.52;;
37971;SDS011;23794;48.234;8.344;2023-03-01T05:50:16;26.88;;;15.18;;
37971;SDS011;23794;48.234;8.344;2023-03-01T05:52:58;25.52;;;15.93;;
37971;SDS011;23794;48.234;8.344;2023-03-01T05:55:29;24.00;;;14.55;;
37971;SDS011;23794;48.234;8.344;2023-03-01T05:58:04;25.23;;;15.13;;
37971;SDS011;23794;48.234;8.344;2023-03-01T06:00:34;24.65;;;15.80;;
37971;SDS011;23794;48.234;8.344;2023-03-01T06:03:01;23.58;;;14.82;;
37971;SDS011;23794;48.234;8.344;2023-03-01T06:05:28;26.38;;;15.60;;
37971;SDS011;23794;48.234;8.344;2023-03-01T06:07:54;23.83;;;15.63;;
37971;SDS011;23794;48.234;8.344;2023-03-01T06:10:24;26.15;;;16.25;;
37971;SDS011;23794;48.234;8.344;2023-03-01T06:12:51;28.45;;;17.25;;
37971;SDS011;23794;48.234;8.344;2023-03-01T06:15:17;26.15;;;16.65;;
37971;SDS011;23794;48.234;8.344;2023-03-01T06:17:45;27.63;;;16.90;;
37971;SDS011;23794;48.234;8.344;2023-03-01T06:20:17;24.80;;;15.95;;
37971;SDS011;23794;48.234;8.344;2023-03-01T06:22:46;23.60;;;14.93;;
37971;SDS011;23794;48.234;8.344;2023-03-01T06:25:14;26.35;;;15.48;;
37971;SDS011;23794;48.234;8.344;2023-03-01T06:27:42;25.50;;;14.65;;
37971;SDS011;23794;48.234;8.344;2023-03-01T06:30:10;25.73;;;16.05;;
37971;SDS011;23794;48.234;8.344;2023-03-01T06:32:38;27.20;;;16.45;;
37971;SDS011;23794;48.234;8.344;2023-03-01T06:35:09;25.00;;;15.40;;
37971;SDS011;23794;48.234;8.344;2023-03-01T06:37:37;24.27;;;14.98;;
37971;SDS011;23794;48.234;8.344;2023-03-01T06:40:04;26.73;;;15.70;;
37971;SDS011;23794;48.234;8.344;2023-03-01T06:42:35;28.73;;;17.15;;
37971;SDS011;23794;48.234;8.344;2023-03-01T06:45:02;24.13;;;15.48;;
37971;SDS011;23794;48.234;8.344;2023-03-01T06:47:30;25.90;;;16.08;;
37971;SDS011;23794;48.234;8.344;2023-03-01T06:49:57;26.20;;;16.15;;
37971;SDS011;23794;48.234;8.344;2023-03-01T06:52:23;28.23;;;16.65;;
37971;SDS011;23794;48.234;8.344;2023-03-01T06:54:50;26.25;;;16.42;;
37971;SDS011;23794;48.234;8.344;2023-03-01T06:57:16;23.67;;;15.68;;
37971;SDS011;23794;48.234;8.344;2023-03-01T06:59:44;26.27;;;14.77;;
37971;SDS011;23794;48.234;8.344;2023-03-01T07:02:13;23.77;;;14.82;;
37971;SDS011;23794;48.234;8.344;2023-03-01T07:04:41;27.55;;;16.42;;
37971;SDS011;23794;48.234;8.344;2023-03-01T07:07:08;25.77;;;16.83;;
37971;SDS011;23794;48.234;8.344;2023-03-01T07:09:35;29.42;;;17.48;;
37971;SDS011;23794;48.234;8.344;2023-03-01T07:12:01;26.73;;;16.02;;
37971;SDS011;23794;48.234;8.344;2023-03-01T07:14:28;28.45;;;16.77;;
37971;SDS011;23794;48.234;8.344;2023-03-01T07:16:55;29.55;;;16.50;;
37971;SDS011;23794;48.234;8.344;2023-03-01T07:19:22;24.58;;;15.65;;
37971;SDS011;23794;48.234;8.344;2023-03-01T07:21:49;29.38;;;16.65;;
37971;SDS011;23794;48.234;8.344;2023-03-01T07:24:15;26.67;;;16.95;;
37971;SDS011;23794;48.234;8.344;2023-03-01T07:26:42;27.23;;;16.25;;
37971;SDS011;23794;48.234;8.344;2023-03-01T07:29:09;25.40;;;15.35;;
37971;SDS011;23794;48.234;8.344;2023-03-01T07:31:36;24.80;;;16.27;;
37971;SDS011;23794;48.234;8.344;2023-03-01T07:34:03;26.02;;;16.27;;
37971;SDS011;23794;48.234;8.344;2023-03-01T07:36:30;24.90;;;15.18;;
37971;SDS011;23794;48.234;8.344;2023-03-01T07:38:57;25.25;;;15.88;;
37971;SDS011;23794;48.234;8.344;2023-03-01T07:41:24;24.92;;;15.75;;
37971;SDS011;23794;48.234;8.344;2023-03-01T07:43:51;29.08;;;17.45;;
37971;SDS011;23794;48.234;8.344;2023-03-01T07:46:17;31.67;;;17.83;;
37971;SDS011;23794;48.234;8.344;2023-03-01T07:48:45;26.70;;;17.20;;
37971;SDS011;23794;48.234;8.344;2023-03-01T07:51:12;30.33;;;18.10;;
37971;SDS011;23794;48.234;8.344;2023-03-01T07:53:39;29.45;;;17.83;;
37971;SDS011;23794;48.234;8.344;2023-03-01T07:56:07;26.35;;;16.88;;
37971;SDS011;23794;48.234;8.344;2023-03-01T07:58:36;28.25;;;16.80;;
37971;SDS011;23794;48.234;8.344;2023-03-01T08:01:05;30.98;;;18.20;;
37971;SDS011;23794;48.234;8.344;2023-03-01T08:03:33;47.13;;;29.52;;
37971;SDS011;23794;48.234;8.344;2023-03-01T08:06:01;29.67;;;17.27;;
37971;SDS011;23794;48.234;8.344;2023-03-01T08:08:29;32.05;;;20.75;;
37971;SDS011;23794;48.234;8.344;2023-03-01T08:10:57;29.27;;;15.95;;
37971;SDS011;23794;48.234;8.344;2023-03-01T08:13:24;27.88;;;16.15;;
37971;SDS011;23794;48.234;8.344;2023-03-01T08:15:51;35.17;;;19.50;;
37971;SDS011;23794;48.234;8.344;2023-03-01T08:18:18;24.13;;;15.63;;
37971;SDS011;23794;48.234;8.344;2023-03-01T08:20:46;26.65;;;15.57;;
37971;SDS011;23794;48.234;8.344;2023-03-01T08:23:13;25.90;;;16.88;;
37971;SDS011;23794;48.234;8.344;2023-03-01T08:25:40;25.58;;;16.38;;
37971;SDS011;23794;48.234;8.344;2023-03-01T08:28:06;27.50;;;16.17;;
37971;SDS011;23794;48.234;8.344;2023-03-01T08:30:33;24.88;;;17.08;;
37971;SDS011;23794;48.234;8.344;2023-03-01T08:33:00;27.17;;;16.13;;
37971;SDS011;23794;48.234;8.344;2023-03-01T08:35:27;26.23;;;16.08;;
37971;SDS011;23794;48.234;8.344;2023-03-01T08:37:53;27.60;;;16.50;;
37971;SDS011;23794;48.234;8.344;2023-03-01T08:40:20;25.10;;;15.60;;
37971;SDS011;23794;48.234;8.344;2023-03-01T08:42:46;30.42;;;17.48;;
37971;SDS011;23794;48.234;8.344;2023-03-01T08:45:15;26.48;;;17.05;;
37971;SDS011;23794;48.234;8.344;2023-03-01T08:47:44;27.30;;;16.20;;
37971;SDS011;23794;48.234;8.344;2023-03-01T08:50:12;26.65;;;17.25;;
37971;SDS011;23794;48.234;8.344;2023-03-01T08:52:39;28.05;;;17.25;;
37971;SDS011;23794;48.234;8.344;2023-03-01T08:55:05;29.02;;;18.65;;
37971;SDS011;23794;48.234;8.344;2023-03-01T08:57:33;26.00;;;17.35;;
37971;SDS011;23794;48.234;8.344;2023-03-01T08:59:59;31.15;;;15.68;;
37971;SDS011;23794;48.234;8.344;2023-03-01T09:02:26;29.50;;;17.80;;
37971;SDS011;23794;48.234;8.344;2023-03-01T09:04:53;26.35;;;16.80;;
37971;SDS011;23794;48.234;8.344;2023-03-01T09:07:19;29.98;;;17.60;;
37971;SDS011;23794;48.234;8.344;2023-03-01T09:09:46;27.40;;;17.67;;
37971;SDS011;23794;48.234;8.344;2023-03-01T09:12:12;34.42;;;23.85;;
37971;SDS011;23794;48.234;8.344;2023-03-01T09:14:39;30.40;;;18.85;;
37971;SDS011;23794;48.234;8.344;2023-03-01T09:17:07;28.77;;;17.95;;
37971;SDS011;23794;48.234;8.344;2023-03-01T09:19:33;28.27;;;17.45;;
37971;SDS011;23794;48.234;8.344;2023-03-01T09:22:00;39.55;;;22.25;;
37971;SDS011;23794;48.234;8.344;2023-03-01T09:24:28;26.92;;;17.08;;
37971;SDS011;23794;48.234;8.344;2023-03-01T09:26:55;28.85;;;17.95;;
37971;SDS011;23794;48.234;8.344;2023-03-01T09:29:23;33.97;;;23.80;;
37971;SDS011;23794;48.234;8.344;2023-03-01T09:31:50;24.83;;;17.80;;
37971;SDS011;23794;48.234;8.344;2023-03-01T09:34:16;28.90;;;18.10;;
37971;SDS011;23794;48.234;8.344;2023-03-01T09:36:49;28.10;;;17.35;;
37971;SDS011;23794;48.234;8.344;2023-03-01T09:39:16;27.27;;;17.40;;
37971;SDS011;23794;48.234;8.344;2023-03-01T09:41:49;25.35;;;16.98;;
37971;SDS011;23794;48.234;8.344;2023-03-01T09:55:31;27.85;;;17.38;;
37971;SDS011;23794;48.234;8.344;2023-03-01T10:03:42;35.95;;;21.20;;
37971;SDS011;23794;48.234;8.344;2023-03-01T10:06:13;26.38;;;16.88;;
37971;SDS011;23794;48.234;8.344;2023-03-01T10:09:00;60.25;;;27.67;;
37971;SDS011;23794;48.234;8.344;2023-03-01T10:11:41;26.45;;;16.50;;
37971;SDS011;23794;48.234;8.344;2023-03-01T10:14:21;32.05;;;18.30;;
37971;SDS011;23794;48.234;8.344;2023-03-01T10:17:09;28.10;;;17.50;;
37971;SDS011;23794;48.234;8.344;2023-03-01T10:19:53;30.08;;;17.33;;
37971;SDS011;23794;48.234;8.344;2023-03-01T10:22:21;32.45;;;18.80;;
37971;SDS011;23794;48.234;8.344;2023-03-01T10:24:56;28.65;;;17.10;;
37971;SDS011;23794;48.234;8.344;2023-03-01T10:27:25;33.00;;;19.65;;
37971;SDS011;23794;48.234;8.344;2023-03-01T10:32:47;48.00;;;24.58;;
37971;SDS011;23794;48.234;8.344;2023-03-01T10:35:18;34.17;;;21.48;;
37971;SDS011;23794;48.234;8.344;2023-03-01T10:38:06;26.70;;;17.23;;
37971;SDS011;23794;48.234;8.344;2023-03-01T10:40:49;27.35;;;17.70;;
37971;SDS011;23794;48.234;8.344;2023-03-01T10:52:11;23.15;;;15.95;;
37971;SDS011;23794;48.234;8.344;2023-03-01T10:54:51;24.85;;;16.88;;
37971;SDS011;23794;48.234;8.344;2023-03-01T10:57:30;26.75;;;17.58;;
37971;SDS011;23794;48.234;8.344;2023-03-01T11:00:20;24.83;;;15.05;;
37971;SDS011;23794;48.234;8.344;2023-03-01T11:03:13;24.92;;;16.65;;
37971;SDS011;23794;48.234;8.344;2023-03-01T11:08:31;37.70;;;20.80;;
37971;SDS011;23794;48.234;8.344;2023-03-01T11:11:04;26.23;;;16.55;;
37971;SDS011;23794;48.234;8.344;2023-03-01T11:14:27;26.77;;;16.83;;
37971;SDS011;23794;48.234;8.344;2023-03-01T11:19:27;23.40;;;16.17;;
37971;SDS011;23794;48.234;8.344;2023-03-01T11:22:04;30.02;;;17.25;;
37971;SDS011;23794;48.234;8.344;2023-03-01T11:24:45;23.48;;;15.85;;
37971;SDS011;23794;48.234;8.344;2023-03-01T11:27:30;25.00;;;16.00;;
37971;SDS011;23794;48.234;8.344;2023-03-01T11:32:53;22.00;;;15.77;;
37971;SDS011;23794;48.234;8.344;2023-03-01T11:35:24;26.92;;;15.43;;
37971;SDS011;23794;48.234;8.344;2023-03-01T11:40:37;22.95;;;15.50;;
37971;SDS011;23794;48.234;8.344;2023-03-01T11:48:55;23.10;;;16.63;;
37971;SDS011;23794;48.234;8.344;2023-03-01T11:54:28;21.25;;;15.60;;
37971;SDS011;23794;48.234;8.344;2023-03-01T12:00:24;21.92;;;15.60;;
37971;SDS011;23794;48.234;8.344;2023-03-01T12:05:58;22.58;;;15.52;;
37971;SDS011;23794;48.234;8.344;2023-03-01T12:19:19;23.67;;;15.57;;
37971;SDS011;23794;48.234;8.344;2023-03-01T12:21:57;24.23;;;15.73;;
37971;SDS011;23794;48.234;8.344;2023-03-01T12:27:56;24.58;;;16.17;;
37971;SDS011;23794;48.234;8.344;2023-03-01T12:36:16;21.58;;;15.13;;
37971;SDS011;23794;48.234;8.344;2023-03-01T12:42:01;19.08;;;14.70;;
37971;SDS011;23794;48.234;8.344;2023-03-01T12:44:43;21.52;;;14.73;;
37971;SDS011;23794;48.234;8.344;2023-03-01T12:47:26;21.17;;;15.43;;
37971;SDS011;23794;48.234;8.344;2023-03-01T12:52:41;21.63;;;15.32;;
37971;SDS011;23794;48.234;8.344;2023-03-01T12:55:22;21.42;;;14.95;;
37971;SDS011;23794;48.234;8.344;2023-03-01T12:58:02;21.85;;;14.80;;
37971;SDS011;23794;48.234;8.344;2023-03-01T13:00:45;21.40;;;15.43;;
37971;SDS011;23794;48.234;8.344;2023-03-01T13:09:30;23.15;;;14.55;;
37971;SDS011;23794;48.234;8.344;2023-03-01T13:15:35;22.35;;;14.77;;
37971;SDS011;23794;48.234;8.344;2023-03-01T13:31:03;20.83;;;15.98;;
37971;SDS011;23794;48.234;8.344;2023-03-01T13:35:57;22.33;;;15.15;;
37971;SDS011;23794;48.234;8.344;2023-03-01T13:41:13;24.02;;;15.23;;
37971;SDS011;23794;48.234;8.344;2023-03-01T13:44:11;28.25;;;15.48;;
37971;SDS011;23794;48.234;8.344;2023-03-01T13:46:44;21.75;;;14.30;;
37971;SDS011;23794;48.234;8.344;2023-03-01T13:49:12;22.20;;;14.55;;
37971;SDS011;23794;48.234;8.344;2023-03-01T13:51:42;19.15;;;14.32;;
37971;SDS011;23794;48.234;8.344;2023-03-01T13:54:14;19.88;;;15.43;;
37971;SDS011;23794;48.234;8.344;2023-03-01T13:56:42;21.23;;;16.15;;
37971;SDS011;23794;48.234;8.344;2023-03-01T13:59:14;19.88;;;14.07;;
37971;SDS011;23794;48.234;8.344;2023-03-01T14:01:42;21.33;;;15.10;;
37971;SDS011;23794;48.234;8.344;2023-03-01T14:04:23;18.38;;;13.43;;
37971;SDS011;23794;48.234;8.344;2023-03-01T14:06:50;21.38;;;15.05;;
37971;SDS011;23794;48.234;8.344;2023-03-01T14:09:23;21.42;;;15.82;;
37971;SDS011;23794;48.234;8.344;2023-03-01T14:14:43;21.98;;;14.50;;
37971;SDS011;23794;48.234;8.344;2023-03-01T14:20:02;19.80;;;14.43;;
37971;SDS011;23794;48.234;8.344;2023-03-01T14:22:37;20.92;;;15.23;;
37971;SDS011;23794;48.234;8.344;2023-03-01T14:30:53;19.92;;;13.57;;
37971;SDS011;23794;48.234;8.344;2023-03-01T14:33:23;19.08;;;14.02;;
37971;SDS011;23794;48.234;8.344;2023-03-01T14:36:02;22.58;;;14.65;;
37971;SDS011;23794;48.234;8.344;2023-03-01T14:38:36;18.55;;;13.73;;
37971;SDS011;23794;48.234;8.344;2023-03-01T14:41:25;20.60;;;13.52;;
37971;SDS011;23794;48.234;8.344;2023-03-01T14:44:05;25.00;;;13.48;;
37971;SDS011;23794;48.234;8.344;2023-03-01T14:49:02;20.42;;;14.57;;
37971;SDS011;23794;48.234;8.344;2023-03-01T14:51:37;18.48;;;13.48;;
37971;SDS011;23794;48.234;8.344;2023-03-01T14:54:11;20.02;;;13.38;;
37971;SDS011;23794;48.234;8.344;2023-03-01T14:56:47;18.52;;;12.93;;
37971;SDS011;23794;48.234;8.344;2023-03-01T14:59:14;17.58;;;12.85;;
37971;SDS011;23794;48.234;8.344;2023-03-01T15:01:41;19.35;;;12.68;;
37971;SDS011;23794;48.234;8.344;2023-03-01T15:04:10;21.73;;;12.57;;
37971;SDS011;23794;48.234;8.344;2023-03-01T15:06:39;19.23;;;12.98;;
37971;SDS011;23794;48.234;8.344;2023-03-01T15:09:06;18.25;;;12.90;;
37971;SDS011;23794;48.234;8.344;2023-03-01T15:11:40;16.23;;;12.60;;
37971;SDS011;23794;48.234;8.344;2023-03-01T15:14:28;16.63;;;12.82;;
37971;SDS011;23794;48.234;8.344;2023-03-01T15:17:22;18.23;;;11.98;;
37971;SDS011;23794;48.234;8.344;2023-03-01T15:19:58;18.55;;;12.90;;
37971;SDS011;23794;48.234;8.344;2023-03-01T15:22:26;20.65;;;13.00;;
37971;SDS011;23794;48.234;8.344;2023-03-01T15:24:53;17.83;;;11.63;;
37971;SDS011;23794;48.234;8.344;2023-03-01T15:27:21;19.45;;;12.65;;
37971;SDS011;23794;48.234;8.344;2023-03-01T15:32:28;18.60;;;12.10;;
37971;SDS011;23794;48.234;8.344;2023-03-01T15:34:57;18.02;;;12.10;;
37971;SDS011;23794;48.234;8.344;2023-03-01T15:40:17;21.40;;;12.50;;
37971;SDS011;23794;48.234;8.344;2023-03-01T15:42:47;18.02;;;12.60;;
37971;SDS011;23794;48.234;8.344;2023-03-01T15:47:47;19.77;;;13.25;;
37971;SDS011;23794;48.234;8.344;2023-03-01T15:50:21;20.60;;;12.52;;
37971;SDS011;23794;48.234;8.344;2023-03-01T15:52:49;19.63;;;12.73;;
37971;SDS011;23794;48.234;8.344;2023-03-01T15:55:18;16.80;;;12.55;;
37971;SDS011;23794;48.234;8.344;2023-03-01T16:00:49;18.23;;;12.73;;
37971;SDS011;23794;48.234;8.344;2023-03-01T16:03:27;20.70;;;12.75;;
37971;SDS011;23794;48.234;8.344;2023-03-01T16:05:54;20.00;;;13.32;;
37971;SDS011;23794;48.234;8.344;2023-03-01T16:08:21;23.35;;;13.25;;
37971;SDS011;23794;48.234;8.344;2023-03-01T16:10:48;18.70;;;13.48;;
37971;SDS011;23794;48.234;8.344;2023-03-01T16:13:17;20.30;;;13.02;;
37971;SDS011;23794;48.234;8.344;2023-03-01T16:15:44;24.23;;;13.63;;
37971;SDS011;23794;48.234;8.344;2023-03-01T16:18:10;18.88;;;12.18;;
37971;SDS011;23794;48.234;8.344;2023-03-01T16:20:38;20.85;;;13.43;;
37971;SDS011;23794;48.234;8.344;2023-03-01T16:23:07;22.83;;;13.73;;
37971;SDS011;23794;48.234;8.344;2023-03-01T16:25:36;21.60;;;14.00;;
37971;SDS011;23794;48.234;8.344;2023-03-01T16:28:04;19.40;;;12.90;;
37971;SDS011;23794;48.234;8.344;2023-03-01T16:30:35;17.65;;;11.32;;
37971;SDS011;23794;48.234;8.344;2023-03-01T16:33:03;18.65;;;11.65;;
37971;SDS011;23794;48.234;8.344;2023-03-01T16:35:50;17.92;;;11.38;;
37971;SDS011;23794;48.234;8.344;2023-03-01T16:38:16;18.70;;;13.68;;
37971;SDS011;23794;48.234;8.344;2023-03-01T16:40:46;20.02;;;13.32;;
37971;SDS011;23794;48.234;8.344;2023-03-01T16:45:41;18.88;;;12.43;;
37971;SDS011;23794;48.234;8.344;2023-03-01T16:48:10;21.15;;;11.60;;
37971;SDS011;23794;48.234;8.344;2023-03-01T16:50:37;18.92;;;12.52;;
37971;SDS011;23794;48.234;8.344;2023-03-01T16:53:05;18.85;;;11.40;;
37971;SDS011;23794;48.234;8.344;2023-03-01T16:55:31;15.38;;;11.25;;
37971;SDS011;23794;48.234;8.344;2023-03-01T16:57:59;20.13;;;13.27;;
37971;SDS011;23794;48.234;8.344;2023-03-01T17:00:26;22.05;;;14.30;;
37971;SDS011;23794;48.234;8.344;2023-03-01T17:02:53;22.35;;;15.00;;
37971;SDS011;23794;48.234;8.344;2023-03-01T17:05:20;26.02;;;15.90;;
37971;SDS011;23794;48.234;8.344;2023-03-01T17:07:49;19.25;;;12.93;;